sensor_id;sensor_type;location;lat;lon;timestamp;P1;durP1;ratioP1;P2;durP2;ratioP2
5454;SDS011;2750;49.050;9.250;2024-02-16T00:02:45;3.03;;;2.73;;
5454;SDS011;2750;49.050;9.250;2024-02-16T00:07:46;3.33;;;2.60;;
5454;SDS011;2750;49.050;9.250;2024-02-16T00:12:49;3.30;;;2.33;;
5454;SDS011;2750;49.050;9.250;2024-02-16T00:17:50;3.67;;;2.77;;
5454;SDS011;2750;49.050;9.250;2024-02-16T00:22:52;3.10;;;2.10;;
5454;SDS011;2750;49.050;9.250;2024-02-16T00:27:55;2.83;;;2.57;;
5454;SDS011;2750;49.050;9.250;2024-02-16T00:32:56;3.90;;;2.90;;
5454;SDS011;2750;49.050;9.250;2024-02-16T00:37:58;3.47;;;2.53;;
5454;SDS011;2750;49.050;9.250;2024-02-16T00:43:01;3.60;;;2.60;;
5454;SDS011;2750;49.050;9.250;2024-02-16T00:48:03;3.17;;;2.47;;
5454;SDS011;2750;49.050;9.250;2024-02-16T00:53:06;3.77;;;2.97;;
5454;SDS011;2750;49.050;9.250;2024-02-16T00:58:09;2.57;;;2.37;;
5454;SDS011;2750;49.050;9.250;2024-02-16T01:03:11;3.80;;;2.70;;
5454;SDS011;2750;49.050;9.250;2024-02-16T01:08:13;3.67;;;3.30;;
5454;SDS011;2750;49.050;9.250;2024-02-16T01:13:15;3.23;;;2.33;;
5454;SDS011;2750;49.050;9.250;2024-02-16T01:18:17;4.47;;;2.53;;
5454;SDS011;2750;49.050;9.250;2024-02-16T01:23:19;3.07;;;2.70;;
5454;SDS011;2750;49.050;9.250;2024-02-16T01:28:22;4.43;;;2.23;;
5454;SDS011;2750;49.050;9.250;2024-02-16T01:33:24;3.00;;;2.70;;
5454;SDS011;2750;49.050;9.250;2024-02-16T01:38:25;3.73;;;3.07;;
5454;SDS011;2750;49.050;9.250;2024-02-16T01:43:28;3.80;;;2.70;;
5454;SDS011;2750;49.050;9.250;2024-02-16T01:48:29;3.07;;;2.73;;
5454;SDS011;2750;49.050;9.250;2024-02-16T01:53:31;5.20;;;3.13;;
5454;SDS011;2750;49.050;9.250;2024-02-16T01:58:34;2.93;;;2.63;;
5454;SDS011;2750;49.050;9.250;2024-02-16T02:03:36;4.00;;;3.60;;
5454;SDS011;2750;49.050;9.250;2024-02-16T02:08:37;3.23;;;2.93;;
5454;SDS011;2750;49.050;9.250;2024-02-16T02:13:40;3.80;;;2.57;;
5454;SDS011;2750;49.050;9.250;2024-02-16T02:18:42;3.43;;;2.57;;
5454;SDS011;2750;49.050;9.250;2024-02-16T02:23:45;2.70;;;2.50;;
5454;SDS011;2750;49.050;9.250;2024-02-16T02:28:46;4.67;;;2.57;;
5454;SDS011;2750;49.050;9.250;2024-02-16T02:33:48;2.57;;;2.37;;
5454;SDS011;2750;49.050;9.250;2024-02-16T02:38:51;3.60;;;2.40;;
5454;SDS011;2750;49.050;9.250;2024-02-16T02:43:53;2.90;;;2.70;;
5454;SDS011;2750;49.050;9.250;2024-02-16T02:48:55;3.00;;;2.63;;
5454;SDS011;2750;49.050;9.250;2024-02-16T02:53:57;1.83;;;1.73;;
5454;SDS011;2750;49.050;9.250;2024-02-16T02:58:59;4.37;;;2.63;;
5454;SDS011;2750;49.050;9.250;2024-02-16T03:04:00;3.23;;;2.43;;
5454;SDS011;2750;49.050;9.250;2024-02-16T03:09:03;2.90;;;2.70;;
5454;SDS011;2750;49.050;9.250;2024-02-16T03:14:05;2.60;;;2.40;;
5454;SDS011;2750;49.050;9.250;2024-02-16T03:19:06;2.93;;;2.73;;
5454;SDS011;2750;49.050;9.250;2024-02-16T03:24:10;2.50;;;2.30;;
5454;SDS011;2750;49.050;9.250;2024-02-16T03:29:11;3.60;;;2.60;;
5454;SDS011;2750;49.050;9.250;2024-02-16T03:34:13;3.40;;;2.67;;
5454;SDS011;2750;49.050;9.250;2024-02-16T03:39:15;3.10;;;2.50;;
5454;SDS011;2750;49.050;9.250;2024-02-16T03:44:20;3.33;;;3.00;;
5454;SDS011;2750;49.050;9.250;2024-02-16T03:49:21;3.13;;;2.70;;
5454;SDS011;2750;49.050;9.250;2024-02-16T03:54:24;4.77;;;2.73;;
5454;SDS011;2750;49.050;9.250;2024-02-16T03:59:25;3.90;;;3.00;;
5454;SDS011;2750;49.050;9.250;2024-02-16T04:04:27;4.67;;;3.10;;
5454;SDS011;2750;49.050;9.250;2024-02-16T04:09:30;3.50;;;3.20;;
5454;SDS011;2750;49.050;9.250;2024-02-16T04:14:32;4.63;;;3.03;;
5454;SDS011;2750;49.050;9.250;2024-02-16T04:19:33;6.60;;;3.23;;
5454;SDS011;2750;49.050;9.250;2024-02-16T04:24:38;3.43;;;3.13;;
5454;SDS011;2750;49.050;9.250;2024-02-16T04:29:40;4.10;;;3.13;;
5454;SDS011;2750;49.050;9.250;2024-02-16T04:34:41;6.27;;;3.23;;
5454;SDS011;2750;49.050;9.250;2024-02-16T04:39:44;3.80;;;2.80;;
5454;SDS011;2750;49.050;9.250;2024-02-16T04:44:46;3.87;;;2.90;;
5454;SDS011;2750;49.050;9.250;2024-02-16T04:49:48;3.60;;;3.20;;
5454;SDS011;2750;49.050;9.250;2024-02-16T04:54:51;4.97;;;3.17;;
5454;SDS011;2750;49.050;9.250;2024-02-16T04:59:53;3.10;;;2.80;;
5454;SDS011;2750;49.050;9.250;2024-02-16T05:04:54;6.70;;;3.37;;
5454;SDS011;2750;49.050;9.250;2024-02-16T05:09:57;5.20;;;3.17;;
5454;SDS011;2750;49.050;9.250;2024-02-16T05:14:59;5.43;;;3.37;;
5454;SDS011;2750;49.050;9.250;2024-02-16T05:20:01;2.87;;;2.57;;
5454;SDS011;2750;49.050;9.250;2024-02-16T05:25:04;3.97;;;3.17;;
5454;SDS011;2750;49.050;9.250;2024-02-16T05:30:05;3.27;;;2.77;;
5454;SDS011;2750;49.050;9.250;2024-02-16T05:35:10;3.50;;;3.20;;
5454;SDS011;2750;49.050;9.250;2024-02-16T05:40:14;3.37;;;2.70;;
5454;SDS011;2750;49.050;9.250;2024-02-16T05:45:24;4.03;;;2.90;;
5454;SDS011;2750;49.050;9.250;2024-02-16T05:50:26;5.97;;;3.17;;
5454;SDS011;2750;49.050;9.250;2024-02-16T05:55:29;5.43;;;3.23;;
5454;SDS011;2750;49.050;9.250;2024-02-16T06:00:31;4.20;;;3.33;;
5454;SDS011;2750;49.050;9.250;2024-02-16T06:05:34;5.73;;;3.90;;
5454;SDS011;2750;49.050;9.250;2024-02-16T06:10:37;3.40;;;3.10;;
5454;SDS011;2750;49.050;9.250;2024-02-16T06:15:39;6.10;;;3.67;;
5454;SDS011;2750;49.050;9.250;2024-02-16T06:20:41;5.73;;;3.73;;
5454;SDS011;2750;49.050;9.250;2024-02-16T06:25:44;5.33;;;2.90;;
5454;SDS011;2750;49.050;9.250;2024-02-16T06:30:46;3.90;;;3.40;;
5454;SDS011;2750;49.050;9.250;2024-02-16T06:35:48;3.87;;;3.33;;
5454;SDS011;2750;49.050;9.250;2024-02-16T06:40:51;5.40;;;3.20;;
5454;SDS011;2750;49.050;9.250;2024-02-16T06:45:53;5.60;;;3.33;;
5454;SDS011;2750;49.050;9.250;2024-02-16T06:50:56;6.33;;;4.23;;
5454;SDS011;2750;49.050;9.250;2024-02-16T06:55:59;7.13;;;4.13;;
5454;SDS011;2750;49.050;9.250;2024-02-16T07:01:01;7.37;;;4.50;;
5454;SDS011;2750;49.050;9.250;2024-02-16T07:06:03;6.37;;;3.70;;
5454;SDS011;2750;49.050;9.250;2024-02-16T07:11:11;6.57;;;4.33;;
5454;SDS011;2750;49.050;9.250;2024-02-16T07:16:13;6.07;;;4.53;;
5454;SDS011;2750;49.050;9.250;2024-02-16T07:21:14;6.50;;;4.40;;
5454;SDS011;2750;49.050;9.250;2024-02-16T07:26:17;6.43;;;4.23;;
5454;SDS011;2750;49.050;9.250;2024-02-16T07:31:19;5.77;;;4.30;;
5454;SDS011;2750;49.050;9.250;2024-02-16T07:36:20;7.43;;;4.63;;
5454;SDS011;2750;49.050;9.250;2024-02-16T07:41:23;5.30;;;4.70;;
5454;SDS011;2750;49.050;9.250;2024-02-16T07:46:25;7.90;;;5.90;;
5454;SDS011;2750;49.050;9.250;2024-02-16T07:51:26;12.83;;;9.53;;
5454;SDS011;2750;49.050;9.250;2024-02-16T07:56:29;16.23;;;10.23;;
5454;SDS011;2750;49.050;9.250;2024-02-16T08:01:31;14.93;;;7.57;;
5454;SDS011;2750;49.050;9.250;2024-02-16T08:06:32;7.23;;;5.73;;
5454;SDS011;2750;49.050;9.250;2024-02-16T08:11:35;12.60;;;5.57;;
5454;SDS011;2750;49.050;9.250;2024-02-16T08:16:37;8.03;;;6.13;;
5454;SDS011;2750;49.050;9.250;2024-02-16T08:21:38;8.97;;;5.30;;
5454;SDS011;2750;49.050;9.250;2024-02-16T08:26:41;7.10;;;5.40;;
5454;SDS011;2750;49.050;9.250;2024-02-16T08:31:42;9.00;;;5.93;;
5454;SDS011;2750;49.050;9.250;2024-02-16T08:36:44;10.47;;;7.30;;
5454;SDS011;2750;49.050;9.250;2024-02-16T08:41:47;7.13;;;4.87;;
5454;SDS011;2750;49.050;9.250;2024-02-16T08:46:49;10.97;;;5.47;;
5454;SDS011;2750;49.050;9.250;2024-02-16T08:51:50;10.80;;;8.97;;
5454;SDS011;2750;49.050;9.250;2024-02-16T08:56:54;11.53;;;6.77;;
5454;SDS011;2750;49.050;9.250;2024-02-16T09:01:56;9.20;;;5.70;;
5454;SDS011;2750;49.050;9.250;2024-02-16T09:06:58;7.73;;;5.67;;
5454;SDS011;2750;49.050;9.250;2024-02-16T09:12:01;7.10;;;5.13;;
5454;SDS011;2750;49.050;9.250;2024-02-16T09:17:03;4.37;;;3.77;;
5454;SDS011;2750;49.050;9.250;2024-02-16T09:22:05;7.30;;;3.40;;
5454;SDS011;2750;49.050;9.250;2024-02-16T09:27:07;3.53;;;2.90;;
5454;SDS011;2750;49.050;9.250;2024-02-16T09:32:10;4.87;;;3.40;;
5454;SDS011;2750;49.050;9.250;2024-02-16T09:37:11;7.23;;;4.20;;
5454;SDS011;2750;49.050;9.250;2024-02-16T09:42:14;4.33;;;3.33;;
5454;SDS011;2750;49.050;9.250;2024-02-16T09:47:16;6.90;;;3.23;;
5454;SDS011;2750;49.050;9.250;2024-02-16T09:52:19;4.27;;;3.40;;
5454;SDS011;2750;49.050;9.250;2024-02-16T09:57:22;4.97;;;3.53;;
5454;SDS011;2750;49.050;9.250;2024-02-16T10:02:24;3.97;;;2.87;;
5454;SDS011;2750;49.050;9.250;2024-02-16T10:07:30;5.47;;;3.10;;
5454;SDS011;2750;49.050;9.250;2024-02-16T10:12:34;3.50;;;2.90;;
5454;SDS011;2750;49.050;9.250;2024-02-16T10:17:35;6.03;;;3.40;;
5454;SDS011;2750;49.050;9.250;2024-02-16T10:22:37;5.07;;;3.30;;
5454;SDS011;2750;49.050;9.250;2024-02-16T10:27:40;5.87;;;2.80;;
5454;SDS011;2750;49.050;9.250;2024-02-16T10:32:41;6.30;;;3.40;;
5454;SDS011;2750;49.050;9.250;2024-02-16T10:37:43;4.47;;;3.10;;
5454;SDS011;2750;49.050;9.250;2024-02-16T10:42:47;5.07;;;3.30;;
5454;SDS011;2750;49.050;9.250;2024-02-16T10:47:51;6.17;;;5.40;;
5454;SDS011;2750;49.050;9.250;2024-02-16T10:52:52;4.63;;;3.33;;
5454;SDS011;2750;49.050;9.250;2024-02-16T10:57:57;3.63;;;2.77;;
5454;SDS011;2750;49.050;9.250;2024-02-16T11:03:01;4.03;;;3.37;;
5454;SDS011;2750;49.050;9.250;2024-02-16T11:08:05;4.87;;;3.63;;
5454;SDS011;2750;49.050;9.250;2024-02-16T11:13:13;5.47;;;3.63;;
5454;SDS011;2750;49.050;9.250;2024-02-16T11:18:23;5.57;;;3.73;;
5454;SDS011;2750;49.050;9.250;2024-02-16T11:23:26;4.23;;;3.13;;
5454;SDS011;2750;49.050;9.250;2024-02-16T11:28:32;4.57;;;2.67;;
5454;SDS011;2750;49.050;9.250;2024-02-16T11:33:35;3.57;;;3.07;;
5454;SDS011;2750;49.050;9.250;2024-02-16T11:38:37;3.57;;;3.13;;
5454;SDS011;2750;49.050;9.250;2024-02-16T11:43:40;5.50;;;2.90;;
5454;SDS011;2750;49.050;9.250;2024-02-16T11:48:42;3.00;;;2.67;;
5454;SDS011;2750;49.050;9.250;2024-02-16T11:53:43;7.77;;;5.17;;
5454;SDS011;2750;49.050;9.250;2024-02-16T11:58:47;9.40;;;6.93;;
5454;SDS011;2750;49.050;9.250;2024-02-16T12:03:48;7.63;;;3.50;;
5454;SDS011;2750;49.050;9.250;2024-02-16T12:08:50;3.57;;;2.70;;
5454;SDS011;2750;49.050;9.250;2024-02-16T12:13:54;5.80;;;2.93;;
5454;SDS011;2750;49.050;9.250;2024-02-16T12:19:02;5.63;;;3.33;;
5454;SDS011;2750;49.050;9.250;2024-02-16T12:24:04;8.27;;;2.83;;
5454;SDS011;2750;49.050;9.250;2024-02-16T12:29:07;4.10;;;3.57;;
5454;SDS011;2750;49.050;9.250;2024-02-16T12:34:12;5.07;;;3.00;;
5454;SDS011;2750;49.050;9.250;2024-02-16T12:39:13;4.87;;;3.10;;
5454;SDS011;2750;49.050;9.250;2024-02-16T12:44:17;5.20;;;3.27;;
5454;SDS011;2750;49.050;9.250;2024-02-16T12:49:18;7.93;;;3.70;;
5454;SDS011;2750;49.050;9.250;2024-02-16T12:54:21;8.30;;;3.60;;
5454;SDS011;2750;49.050;9.250;2024-02-16T12:59:25;6.97;;;3.63;;
5454;SDS011;2750;49.050;9.250;2024-02-16T13:04:26;6.37;;;2.67;;
5454;SDS011;2750;49.050;9.250;2024-02-16T13:09:31;6.37;;;2.77;;
5454;SDS011;2750;49.050;9.250;2024-02-16T13:14:34;6.70;;;3.10;;
5454;SDS011;2750;49.050;9.250;2024-02-16T13:19:35;8.37;;;3.03;;
5454;SDS011;2750;49.050;9.250;2024-02-16T13:24:37;2.87;;;2.50;;
5454;SDS011;2750;49.050;9.250;2024-02-16T13:29:39;4.10;;;2.80;;
5454;SDS011;2750;49.050;9.250;2024-02-16T13:34:41;4.23;;;3.00;;
5454;SDS011;2750;49.050;9.250;2024-02-16T13:39:42;6.30;;;2.73;;
5454;SDS011;2750;49.050;9.250;2024-02-16T13:44:45;4.83;;;3.30;;
5454;SDS011;2750;49.050;9.250;2024-02-16T13:49:47;6.10;;;2.93;;
5454;SDS011;2750;49.050;9.250;2024-02-16T13:54:49;6.13;;;3.77;;
5454;SDS011;2750;49.050;9.250;2024-02-16T13:59:52;5.40;;;3.47;;
5454;SDS011;2750;49.050;9.250;2024-02-16T14:04:54;4.97;;;3.00;;
5454;SDS011;2750;49.050;9.250;2024-02-16T14:09:56;8.27;;;3.60;;
5454;SDS011;2750;49.050;9.250;2024-02-16T14:14:59;9.30;;;3.20;;
5454;SDS011;2750;49.050;9.250;2024-02-16T14:20:01;5.37;;;2.90;;
5454;SDS011;2750;49.050;9.250;2024-02-16T14:25:02;7.37;;;2.90;;
5454;SDS011;2750;49.050;9.250;2024-02-16T14:30:06;7.73;;;3.27;;
5454;SDS011;2750;49.050;9.250;2024-02-16T14:35:09;5.67;;;2.93;;
5454;SDS011;2750;49.050;9.250;2024-02-16T14:40:11;7.20;;;3.20;;
5454;SDS011;2750;49.050;9.250;2024-02-16T14:45:14;5.43;;;2.80;;
5454;SDS011;2750;49.050;9.250;2024-02-16T14:50:21;3.70;;;2.70;;
5454;SDS011;2750;49.050;9.250;2024-02-16T14:55:24;7.10;;;2.67;;
5454;SDS011;2750;49.050;9.250;2024-02-16T15:00:27;4.40;;;2.47;;
5454;SDS011;2750;49.050;9.250;2024-02-16T15:05:28;4.83;;;2.40;;
5454;SDS011;2750;49.050;9.250;2024-02-16T15:10:30;6.27;;;2.47;;
5454;SDS011;2750;49.050;9.250;2024-02-16T15:15:33;3.33;;;2.20;;
5454;SDS011;2750;49.050;9.250;2024-02-16T15:20:35;3.57;;;2.23;;
5454;SDS011;2750;49.050;9.250;2024-02-16T15:25:36;3.63;;;2.50;;
5454;SDS011;2750;49.050;9.250;2024-02-16T15:30:40;4.30;;;2.50;;
5454;SDS011;2750;49.050;9.250;2024-02-16T15:35:42;7.33;;;2.80;;
5454;SDS011;2750;49.050;9.250;2024-02-16T15:40:43;4.23;;;2.33;;
5454;SDS011;2750;49.050;9.250;2024-02-16T15:45:46;6.23;;;2.77;;
5454;SDS011;2750;49.050;9.250;2024-02-16T15:50:49;4.70;;;2.10;;
5454;SDS011;2750;49.050;9.250;2024-02-16T15:55:51;3.37;;;1.97;;
5454;SDS011;2750;49.050;9.250;2024-02-16T16:00:54;6.40;;;2.40;;
5454;SDS011;2750;49.050;9.250;2024-02-16T16:05:55;5.87;;;2.73;;
5454;SDS011;2750;49.050;9.250;2024-02-16T16:10:57;6.60;;;2.70;;
5454;SDS011;2750;49.050;9.250;2024-02-16T16:16:04;3.87;;;2.10;;
5454;SDS011;2750;49.050;9.250;2024-02-16T16:21:06;3.13;;;2.30;;
5454;SDS011;2750;49.050;9.250;2024-02-16T16:26:07;5.67;;;2.43;;
5454;SDS011;2750;49.050;9.250;2024-02-16T16:31:11;6.97;;;2.63;;
5454;SDS011;2750;49.050;9.250;2024-02-16T16:36:13;5.47;;;2.57;;
5454;SDS011;2750;49.050;9.250;2024-02-16T16:41:15;2.93;;;2.33;;
5454;SDS011;2750;49.050;9.250;2024-02-16T16:46:17;4.10;;;2.33;;
5454;SDS011;2750;49.050;9.250;2024-02-16T16:51:19;7.20;;;2.67;;
5454;SDS011;2750;49.050;9.250;2024-02-16T16:56:21;3.47;;;2.43;;
5454;SDS011;2750;49.050;9.250;2024-02-16T17:01:24;5.63;;;2.10;;
5454;SDS011;2750;49.050;9.250;2024-02-16T17:06:26;3.63;;;2.17;;
5454;SDS011;2750;49.050;9.250;2024-02-16T17:11:27;4.20;;;2.37;;
5454;SDS011;2750;49.050;9.250;2024-02-16T17:16:30;2.93;;;2.20;;
5454;SDS011;2750;49.050;9.250;2024-02-16T17:21:32;4.33;;;2.40;;
5454;SDS011;2750;49.050;9.250;2024-02-16T17:26:33;4.60;;;1.97;;
5454;SDS011;2750;49.050;9.250;2024-02-16T17:31:36;6.00;;;3.47;;
5454;SDS011;2750;49.050;9.250;2024-02-16T17:36:38;3.13;;;2.40;;
5454;SDS011;2750;49.050;9.250;2024-02-16T17:41:39;4.30;;;1.97;;
5454;SDS011;2750;49.050;9.250;2024-02-16T17:46:42;4.40;;;2.07;;
5454;SDS011;2750;49.050;9.250;2024-02-16T17:51:44;3.30;;;2.27;;
5454;SDS011;2750;49.050;9.250;2024-02-16T17:56:45;3.03;;;2.60;;
5454;SDS011;2750;49.050;9.250;2024-02-16T18:01:48;4.43;;;2.83;;
5454;SDS011;2750;49.050;9.250;2024-02-16T18:06:49;3.43;;;2.73;;
5454;SDS011;2750;49.050;9.250;2024-02-16T18:11:51;4.93;;;3.37;;
5454;SDS011;2750;49.050;9.250;2024-02-16T18:16:54;4.80;;;3.37;;
5454;SDS011;2750;49.050;9.250;2024-02-16T18:21:55;6.53;;;3.70;;
5454;SDS011;2750;49.050;9.250;2024-02-16T18:26:57;5.60;;;4.27;;
5454;SDS011;2750;49.050;9.250;2024-02-16T18:32:00;6.27;;;4.40;;
5454;SDS011;2750;49.050;9.250;2024-02-16T18:37:02;7.13;;;5.07;;
5454;SDS011;2750;49.050;9.250;2024-02-16T18:42:04;5.03;;;4.60;;
5454;SDS011;2750;49.050;9.250;2024-02-16T18:47:07;5.43;;;4.30;;
5454;SDS011;2750;49.050;9.250;2024-02-16T18:52:09;5.37;;;4.87;;
5454;SDS011;2750;49.050;9.250;2024-02-16T18:57:12;6.43;;;4.90;;
5454;SDS011;2750;49.050;9.250;2024-02-16T19:02:15;6.30;;;5.70;;
5454;SDS011;2750;49.050;9.250;2024-02-16T19:07:17;6.57;;;4.90;;
5454;SDS011;2750;49.050;9.250;2024-02-16T19:12:18;8.90;;;5.33;;
5454;SDS011;2750;49.050;9.250;2024-02-16T19:17:21;7.30;;;5.30;;
5454;SDS011;2750;49.050;9.250;2024-02-16T19:22:24;5.40;;;4.20;;
5454;SDS011;2750;49.050;9.250;2024-02-16T19:27:25;7.47;;;4.67;;
5454;SDS011;2750;49.050;9.250;2024-02-16T19:32:28;5.13;;;4.63;;
5454;SDS011;2750;49.050;9.250;2024-02-16T19:37:29;6.37;;;4.30;;
5454;SDS011;2750;49.050;9.250;2024-02-16T19:42:31;8.13;;;5.37;;
5454;SDS011;2750;49.050;9.250;2024-02-16T19:47:35;7.83;;;5.33;;
5454;SDS011;2750;49.050;9.250;2024-02-16T19:52:38;7.20;;;6.50;;
5454;SDS011;2750;49.050;9.250;2024-02-16T19:57:40;9.60;;;7.60;;
5454;SDS011;2750;49.050;9.250;2024-02-16T20:02:43;7.47;;;6.47;;
5454;SDS011;2750;49.050;9.250;2024-02-16T20:07:45;10.87;;;8.77;;
5454;SDS011;2750;49.050;9.250;2024-02-16T20:12:47;23.87;;;18.03;;
5454;SDS011;2750;49.050;9.250;2024-02-16T20:17:50;11.83;;;8.93;;
5454;SDS011;2750;49.050;9.250;2024-02-16T20:22:52;9.83;;;7.63;;
5454;SDS011;2750;49.050;9.250;2024-02-16T20:27:53;16.90;;;14.60;;
5454;SDS011;2750;49.050;9.250;2024-02-16T20:32:57;13.93;;;12.53;;
5454;SDS011;2750;49.050;9.250;2024-02-16T20:38:03;20.97;;;16.63;;
5454;SDS011;2750;49.050;9.250;2024-02-16T20:43:05;15.90;;;12.50;;
5454;SDS011;2750;49.050;9.250;2024-02-16T20:48:09;11.03;;;8.57;;
5454;SDS011;2750;49.050;9.250;2024-02-16T20:53:10;7.67;;;6.93;;
5454;SDS011;2750;49.050;9.250;2024-02-16T20:58:12;10.30;;;6.13;;
5454;SDS011;2750;49.050;9.250;2024-02-16T21:03:15;9.33;;;7.30;;
5454;SDS011;2750;49.050;9.250;2024-02-16T21:08:16;8.57;;;6.60;;
5454;SDS011;2750;49.050;9.250;2024-02-16T21:13:17;8.07;;;6.83;;
5454;SDS011;2750;49.050;9.250;2024-02-16T21:18:20;10.43;;;7.13;;
5454;SDS011;2750;49.050;9.250;2024-02-16T21:23:22;8.20;;;6.27;;
5454;SDS011;2750;49.050;9.250;2024-02-16T21:28:24;7.10;;;6.40;;
5454;SDS011;2750;49.050;9.250;2024-02-16T21:33:27;6.23;;;5.60;;
5454;SDS011;2750;49.050;9.250;2024-02-16T21:38:30;7.87;;;5.73;;
5454;SDS011;2750;49.050;9.250;2024-02-16T21:43:31;7.30;;;6.23;;
5454;SDS011;2750;49.050;9.250;2024-02-16T21:48:34;8.07;;;5.87;;
5454;SDS011;2750;49.050;9.250;2024-02-16T21:53:36;7.23;;;5.57;;
5454;SDS011;2750;49.050;9.250;2024-02-16T21:58:37;9.97;;;6.00;;
5454;SDS011;2750;49.050;9.250;2024-02-16T22:03:42;7.37;;;6.03;;
5454;SDS011;2750;49.050;9.250;2024-02-16T22:08:44;6.43;;;5.80;;
5454;SDS011;2750;49.050;9.250;2024-02-16T22:13:45;5.73;;;5.03;;
5454;SDS011;2750;49.050;9.250;2024-02-16T22:18:48;6.80;;;5.70;;
5454;SDS011;2750;49.050;9.250;2024-02-16T22:23:50;7.23;;;5.20;;
5454;SDS011;2750;49.050;9.250;2024-02-16T22:28:56;6.90;;;4.77;;
5454;SDS011;2750;49.050;9.250;2024-02-16T22:33:59;5.87;;;5.07;;
5454;SDS011;2750;49.050;9.250;2024-02-16T22:39:00;5.07;;;4.40;;
5454;SDS011;2750;49.050;9.250;2024-02-16T22:44:03;5.10;;;4.43;;
5454;SDS011;2750;49.050;9.250;2024-02-16T22:49:06;5.67;;;4.70;;
5454;SDS011;2750;49.050;9.250;2024-02-16T22:54:08;5.37;;;3.97;;
5454;SDS011;2750;49.050;9.250;2024-02-16T22:59:10;4.80;;;4.30;;
5454;SDS011;2750;49.050;9.250;2024-02-16T23:04:13;6.53;;;4.40;;
5454;SDS011;2750;49.050;9.250;2024-02-16T23:09:14;4.70;;;4.30;;
5454;SDS011;2750;49.050;9.250;2024-02-16T23:14:15;6.00;;;3.93;;
5454;SDS011;2750;49.050;9.250;2024-02-16T23:19:18;5.40;;;4.27;;
5454;SDS011;2750;49.050;9.250;2024-02-16T23:24:20;4.47;;;4.07;;
5454;SDS011;2750;49.050;9.250;2024-02-16T23:29:21;4.40;;;4.00;;
5454;SDS011;2750;49.050;9.250;2024-02-16T23:34:24;4.00;;;3.33;;
5454;SDS011;2750;49.050;9.250;2024-02-16T23:39:26;4.43;;;3.60;;
5454;SDS011;2750;49.050;9.250;2024-02-16T23:44:28;6.43;;;4.00;;
5454;SDS011;2750;49.050;9.250;2024-02-16T23:49:31;4.00;;;3.60;;
5454;SDS011;2750;49.050;9.250;2024-02-16T23:54:32;3.90;;;3.50;;
5454;SDS011;2750;49.050;9.250;2024-02-16T23:59:34;3.40;;;3.10;;
